sensor_id;sensor_type;location;lat;lon;timestamp;temperature;humidity
12682;DHT22;6405;59.208;18.216;2023-03-21T00:02:16;-0.60;99.90
12682;DHT22;6405;59.208;18.216;2023-03-21T00:04:42;-0.60;99.90
12682;DHT22;6405;59.208;18.216;2023-03-21T00:07:08;-0.60;99.90
12682;DHT22;6405;59.208;18.216;2023-03-21T00:09:33;-0.60;99.90
12682;DHT22;6405;59.208;18.216;2023-03-21T00:11:59;-0.50;99.90
12682;DHT22;6405;59.208;18.216;2023-03-21T00:14:27;-0.50;99.90
12682;DHT22;6405;59.208;18.216;2023-03-21T00:16:55;-0.40;99.90
12682;DHT22;6405;59.208;18.216;2023-03-21T00:19:21;-0.40;99.90
12682;DHT22;6405;59.208;18.216;2023-03-21T00:21:49;-0.40;99.90
12682;DHT22;6405;59.208;18.216;2023-03-21T00:24:16;-0.30;99.90
12682;DHT22;6405;59.208;18.216;2023-03-21T00:26:42;-0.30;99.90
12682;DHT22;6405;59.208;18.216;2023-03-21T00:29:08;-0.30;99.90
12682;DHT22;6405;59.208;18.216;2023-03-21T00:31:34;-0.30;99.90
12682;DHT22;6405;59.208;18.216;2023-03-21T00:34:00;-0.30;99.90
12682;DHT22;6405;59.208;18.216;2023-03-21T00:36:26;-0.30;99.90
12682;DHT22;6405;59.208;18.216;2023-03-21T00:38:52;-0.20;99.90
12682;DHT22;6405;59.208;18.216;2023-03-21T00:41:18;-0.20;99.90
12682;DHT22;6405;59.208;18.216;2023-03-21T00:43:44;-0.20;99.90
12682;DHT22;6405;59.208;18.216;2023-03-21T00:46:10;-0.20;99.90
12682;DHT22;6405;59.208;18.216;2023-03-21T00:48:36;-0.20;99.90
12682;DHT22;6405;59.208;18.216;2023-03-21T00:51:11;-0.20;99.90
12682;DHT22;6405;59.208;18.216;2023-03-21T00:53:40;-0.20;99.90
12682;DHT22;6405;59.208;18.216;2023-03-21T00:56:06;-0.20;99.90
12682;DHT22;6405;59.208;18.216;2023-03-21T00:58:31;-0.20;99.90
12682;DHT22;6405;59.208;18.216;2023-03-21T01:00:57;-0.20;99.90
12682;DHT22;6405;59.208;18.216;2023-03-21T01:03:23;-0.20;99.90
12682;DHT22;6405;59.208;18.216;2023-03-21T01:05:51;-0.20;99.90
12682;DHT22;6405;59.208;18.216;2023-03-21T01:08:29;-0.20;99.90
12682;DHT22;6405;59.208;18.216;2023-03-21T01:10:56;-0.20;99.90
12682;DHT22;6405;59.208;18.216;2023-03-21T01:13:23;-0.20;99.90
12682;DHT22;6405;59.208;18.216;2023-03-21T01:15:52;-0.20;99.90
12682;DHT22;6405;59.208;18.216;2023-03-21T01:18:20;-0.20;99.90
12682;DHT22;6405;59.208;18.216;2023-03-21T01:20:47;-0.20;99.90
12682;DHT22;6405;59.208;18.216;2023-03-21T01:23:14;-0.20;99.90
12682;DHT22;6405;59.208;18.216;2023-03-21T01:25:40;-0.20;99.90
12682;DHT22;6405;59.208;18.216;2023-03-21T01:28:07;-0.30;99.90
12682;DHT22;6405;59.208;18.216;2023-03-21T01:30:33;-0.20;99.90
12682;DHT22;6405;59.208;18.216;2023-03-21T01:32:58;-0.20;99.90
12682;DHT22;6405;59.208;18.216;2023-03-21T01:35:24;-0.30;99.90
12682;DHT22;6405;59.208;18.216;2023-03-21T01:37:50;-0.20;99.90
12682;DHT22;6405;59.208;18.216;2023-03-21T01:40:24;-0.20;99.90
12682;DHT22;6405;59.208;18.216;2023-03-21T01:42:51;-0.30;99.90
12682;DHT22;6405;59.208;18.216;2023-03-21T01:48:20;-0.30;99.90
12682;DHT22;6405;59.208;18.216;2023-03-21T01:50:48;-0.30;99.90
12682;DHT22;6405;59.208;18.216;2023-03-21T01:53:15;-0.30;99.90
12682;DHT22;6405;59.208;18.216;2023-03-21T01:55:41;-0.30;99.90
12682;DHT22;6405;59.208;18.216;2023-03-21T01:58:09;-0.30;99.90
12682;DHT22;6405;59.208;18.216;2023-03-21T02:00:36;-0.20;99.90
12682;DHT22;6405;59.208;18.216;2023-03-21T02:03:05;-0.20;99.90
12682;DHT22;6405;59.208;18.216;2023-03-21T02:05:51;-0.20;99.90
12682;DHT22;6405;59.208;18.216;2023-03-21T02:08:19;-0.20;99.90
12682;DHT22;6405;59.208;18.216;2023-03-21T02:10:47;-0.20;99.90
12682;DHT22;6405;59.208;18.216;2023-03-21T02:13:14;-0.20;99.90
12682;DHT22;6405;59.208;18.216;2023-03-21T02:15:44;-0.20;99.90
12682;DHT22;6405;59.208;18.216;2023-03-21T02:18:41;-0.20;99.90
12682;DHT22;6405;59.208;18.216;2023-03-21T02:32:28;-0.20;99.90
12682;DHT22;6405;59.208;18.216;2023-03-21T02:43:43;-0.20;99.90
12682;DHT22;6405;59.208;18.216;2023-03-21T02:49:23;-0.20;99.90
12682;DHT22;6405;59.208;18.216;2023-03-21T02:51:51;-0.20;99.90
12682;DHT22;6405;59.208;18.216;2023-03-21T02:54:22;-0.20;99.90
12682;DHT22;6405;59.208;18.216;2023-03-21T02:56:50;-0.20;99.90
12682;DHT22;6405;59.208;18.216;2023-03-21T02:59:17;-0.20;99.90
12682;DHT22;6405;59.208;18.216;2023-03-21T03:01:44;-0.20;99.90
12682;DHT22;6405;59.208;18.216;2023-03-21T03:04:22;-0.20;99.90
12682;DHT22;6405;59.208;18.216;2023-03-21T03:07:09;-0.20;99.90
12682;DHT22;6405;59.208;18.216;2023-03-21T03:09:54;-0.20;99.90
12682;DHT22;6405;59.208;18.216;2023-03-21T03:17:49;-0.20;99.90
12682;DHT22;6405;59.208;18.216;2023-03-21T03:20:37;-0.30;99.90
12682;DHT22;6405;59.208;18.216;2023-03-21T03:26:13;-0.30;99.90
12682;DHT22;6405;59.208;18.216;2023-03-21T03:28:59;-0.30;99.90
12682;DHT22;6405;59.208;18.216;2023-03-21T03:31:33;-0.30;99.90
12682;DHT22;6405;59.208;18.216;2023-03-21T03:34:07;-0.30;99.90
12682;DHT22;6405;59.208;18.216;2023-03-21T03:36:40;-0.20;99.90
12682;DHT22;6405;59.208;18.216;2023-03-21T03:39:09;-0.30;99.90
12682;DHT22;6405;59.208;18.216;2023-03-21T03:41:48;-0.30;99.90
12682;DHT22;6405;59.208;18.216;2023-03-21T03:44:15;-0.30;99.90
12682;DHT22;6405;59.208;18.216;2023-03-21T03:46:57;-0.30;99.90
12682;DHT22;6405;59.208;18.216;2023-03-21T03:49:25;-0.30;99.90
12682;DHT22;6405;59.208;18.216;2023-03-21T03:54:32;-0.30;99.90
12682;DHT22;6405;59.208;18.216;2023-03-21T03:57:00;-0.30;99.90
12682;DHT22;6405;59.208;18.216;2023-03-21T03:59:26;-0.30;99.90
12682;DHT22;6405;59.208;18.216;2023-03-21T04:01:52;-0.30;99.90
12682;DHT22;6405;59.208;18.216;2023-03-21T04:04:18;-0.30;99.90
12682;DHT22;6405;59.208;18.216;2023-03-21T04:06:47;-0.30;99.90
12682;DHT22;6405;59.208;18.216;2023-03-21T04:09:17;-0.30;99.90
12682;DHT22;6405;59.208;18.216;2023-03-21T04:11:43;-0.30;99.90
12682;DHT22;6405;59.208;18.216;2023-03-21T04:14:08;-0.20;99.90
12682;DHT22;6405;59.208;18.216;2023-03-21T04:16:34;-0.20;99.90
12682;DHT22;6405;59.208;18.216;2023-03-21T04:19:00;-0.20;99.90
12682;DHT22;6405;59.208;18.216;2023-03-21T04:21:27;-0.20;99.90
12682;DHT22;6405;59.208;18.216;2023-03-21T04:23:53;-0.20;99.90
12682;DHT22;6405;59.208;18.216;2023-03-21T04:26:22;-0.30;99.90
12682;DHT22;6405;59.208;18.216;2023-03-21T04:28:50;-0.30;99.90
12682;DHT22;6405;59.208;18.216;2023-03-21T04:31:16;-0.30;99.90
12682;DHT22;6405;59.208;18.216;2023-03-21T04:33:44;-0.30;99.90
12682;DHT22;6405;59.208;18.216;2023-03-21T04:36:12;-0.30;99.90
12682;DHT22;6405;59.208;18.216;2023-03-21T04:38:49;-0.30;99.90
12682;DHT22;6405;59.208;18.216;2023-03-21T04:41:15;-0.30;99.90
12682;DHT22;6405;59.208;18.216;2023-03-21T04:43:41;-0.30;99.90
12682;DHT22;6405;59.208;18.216;2023-03-21T04:46:06;-0.40;99.90
12682;DHT22;6405;59.208;18.216;2023-03-21T04:48:32;-0.40;99.90
12682;DHT22;6405;59.208;18.216;2023-03-21T04:50:58;-0.30;99.90
12682;DHT22;6405;59.208;18.216;2023-03-21T04:53:24;-0.30;99.90
12682;DHT22;6405;59.208;18.216;2023-03-21T04:55:49;-0.30;99.90
12682;DHT22;6405;59.208;18.216;2023-03-21T04:58:15;-0.30;99.90
12682;DHT22;6405;59.208;18.216;2023-03-21T05:00:41;-0.30;99.90
12682;DHT22;6405;59.208;18.216;2023-03-21T05:03:07;-0.30;99.90
12682;DHT22;6405;59.208;18.216;2023-03-21T05:05:36;-0.40;99.90
12682;DHT22;6405;59.208;18.216;2023-03-21T05:08:03;-0.40;99.90
12682;DHT22;6405;59.208;18.216;2023-03-21T05:10:29;-0.40;99.90
12682;DHT22;6405;59.208;18.216;2023-03-21T05:12:55;-0.40;99.90
12682;DHT22;6405;59.208;18.216;2023-03-21T05:15:20;-0.40;99.90
12682;DHT22;6405;59.208;18.216;2023-03-21T05:17:46;-0.30;99.90
12682;DHT22;6405;59.208;18.216;2023-03-21T05:20:13;-0.30;99.90
12682;DHT22;6405;59.208;18.216;2023-03-21T05:22:40;-0.30;99.90
12682;DHT22;6405;59.208;18.216;2023-03-21T05:25:09;-0.30;99.90
12682;DHT22;6405;59.208;18.216;2023-03-21T05:27:36;-0.30;99.90
12682;DHT22;6405;59.208;18.216;2023-03-21T05:30:12;-0.20;99.90
12682;DHT22;6405;59.208;18.216;2023-03-21T05:32:37;-0.20;99.90
12682;DHT22;6405;59.208;18.216;2023-03-21T05:35:04;-0.20;99.90
12682;DHT22;6405;59.208;18.216;2023-03-21T05:37:30;-0.20;99.90
12682;DHT22;6405;59.208;18.216;2023-03-21T05:39:55;-0.20;99.90
12682;DHT22;6405;59.208;18.216;2023-03-21T05:42:21;-0.20;99.90
12682;DHT22;6405;59.208;18.216;2023-03-21T05:44:47;-0.10;99.90
12682;DHT22;6405;59.208;18.216;2023-03-21T05:47:14;-0.10;99.90
12682;DHT22;6405;59.208;18.216;2023-03-21T05:49:41;-0.10;99.90
12682;DHT22;6405;59.208;18.216;2023-03-21T05:52:07;-0.20;99.90
12682;DHT22;6405;59.208;18.216;2023-03-21T05:54:33;-0.20;99.90
12682;DHT22;6405;59.208;18.216;2023-03-21T05:56:59;-0.20;99.90
12682;DHT22;6405;59.208;18.216;2023-03-21T05:59:25;-0.10;99.90
12682;DHT22;6405;59.208;18.216;2023-03-21T06:01:50;-0.10;99.90
12682;DHT22;6405;59.208;18.216;2023-03-21T06:04:16;-0.10;99.90
12682;DHT22;6405;59.208;18.216;2023-03-21T06:06:42;0.00;99.90
12682;DHT22;6405;59.208;18.216;2023-03-21T06:09:07;0.00;99.90
12682;DHT22;6405;59.208;18.216;2023-03-21T06:11:37;0.00;99.90
12682;DHT22;6405;59.208;18.216;2023-03-21T06:14:03;-0.10;99.90
12682;DHT22;6405;59.208;18.216;2023-03-21T06:16:29;0.00;99.90
12682;DHT22;6405;59.208;18.216;2023-03-21T06:18:55;0.10;99.90
12682;DHT22;6405;59.208;18.216;2023-03-21T06:21:21;0.00;99.90
12682;DHT22;6405;59.208;18.216;2023-03-21T06:23:47;0.10;99.90
12682;DHT22;6405;59.208;18.216;2023-03-21T06:26:13;0.10;99.90
12682;DHT22;6405;59.208;18.216;2023-03-21T06:28:38;0.20;99.90
12682;DHT22;6405;59.208;18.216;2023-03-21T06:31:04;0.30;99.90
12682;DHT22;6405;59.208;18.216;2023-03-21T06:33:30;0.30;99.90
12682;DHT22;6405;59.208;18.216;2023-03-21T06:35:57;0.30;99.90
12682;DHT22;6405;59.208;18.216;2023-03-21T06:38:24;0.30;99.90
12682;DHT22;6405;59.208;18.216;2023-03-21T06:40:50;0.50;99.90
12682;DHT22;6405;59.208;18.216;2023-03-21T06:43:16;0.50;99.90
12682;DHT22;6405;59.208;18.216;2023-03-21T06:45:42;0.50;99.90
12682;DHT22;6405;59.208;18.216;2023-03-21T06:48:08;0.50;99.90
12682;DHT22;6405;59.208;18.216;2023-03-21T06:50:34;0.60;99.90
12682;DHT22;6405;59.208;18.216;2023-03-21T06:53:00;0.60;99.90
12682;DHT22;6405;59.208;18.216;2023-03-21T06:55:26;0.70;99.90
12682;DHT22;6405;59.208;18.216;2023-03-21T06:57:54;0.70;99.90
12682;DHT22;6405;59.208;18.216;2023-03-21T07:00:20;0.60;99.90
12682;DHT22;6405;59.208;18.216;2023-03-21T07:02:47;0.60;99.90
12682;DHT22;6405;59.208;18.216;2023-03-21T07:05:13;0.50;99.90
12682;DHT22;6405;59.208;18.216;2023-03-21T07:07:39;0.60;99.90
12682;DHT22;6405;59.208;18.216;2023-03-21T07:10:05;0.60;99.90
12682;DHT22;6405;59.208;18.216;2023-03-21T07:12:31;0.60;99.90
12682;DHT22;6405;59.208;18.216;2023-03-21T07:15:05;0.70;99.90
12682;DHT22;6405;59.208;18.216;2023-03-21T07:17:31;0.70;99.90
12682;DHT22;6405;59.208;18.216;2023-03-21T07:19:57;0.70;99.90
12682;DHT22;6405;59.208;18.216;2023-03-21T07:22:23;0.80;99.90
12682;DHT22;6405;59.208;18.216;2023-03-21T07:24:48;0.80;99.90
12682;DHT22;6405;59.208;18.216;2023-03-21T07:27:16;0.90;99.90
12682;DHT22;6405;59.208;18.216;2023-03-21T07:29:41;0.90;99.90
12682;DHT22;6405;59.208;18.216;2023-03-21T07:32:09;0.90;99.90
12682;DHT22;6405;59.208;18.216;2023-03-21T07:34:36;1.00;99.90
12682;DHT22;6405;59.208;18.216;2023-03-21T07:37:02;1.10;99.90
12682;DHT22;6405;59.208;18.216;2023-03-21T07:39:28;1.00;99.90
12682;DHT22;6405;59.208;18.216;2023-03-21T07:41:54;1.10;99.90
12682;DHT22;6405;59.208;18.216;2023-03-21T07:44:23;1.10;99.90
12682;DHT22;6405;59.208;18.216;2023-03-21T07:46:49;1.10;99.90
12682;DHT22;6405;59.208;18.216;2023-03-21T07:49:15;1.20;99.90
12682;DHT22;6405;59.208;18.216;2023-03-21T07:51:41;1.30;99.90
12682;DHT22;6405;59.208;18.216;2023-03-21T07:54:06;1.40;99.90
12682;DHT22;6405;59.208;18.216;2023-03-21T07:56:32;1.50;99.90
12682;DHT22;6405;59.208;18.216;2023-03-21T07:58:57;1.50;99.90
12682;DHT22;6405;59.208;18.216;2023-03-21T08:01:24;1.50;99.90
12682;DHT22;6405;59.208;18.216;2023-03-21T08:03:50;1.50;99.90
12682;DHT22;6405;59.208;18.216;2023-03-21T08:06:19;1.60;99.90
12682;DHT22;6405;59.208;18.216;2023-03-21T08:08:45;1.60;99.90
12682;DHT22;6405;59.208;18.216;2023-03-21T08:11:11;1.70;99.90
12682;DHT22;6405;59.208;18.216;2023-03-21T08:13:37;1.70;99.90
12682;DHT22;6405;59.208;18.216;2023-03-21T08:16:03;1.80;99.90
12682;DHT22;6405;59.208;18.216;2023-03-21T08:18:29;1.80;99.90
12682;DHT22;6405;59.208;18.216;2023-03-21T08:20:55;1.80;99.90
12682;DHT22;6405;59.208;18.216;2023-03-21T08:23:22;1.80;99.90
12682;DHT22;6405;59.208;18.216;2023-03-21T08:25:52;1.90;99.90
12682;DHT22;6405;59.208;18.216;2023-03-21T08:28:19;2.00;99.90
12682;DHT22;6405;59.208;18.216;2023-03-21T08:30:45;2.00;99.90
12682;DHT22;6405;59.208;18.216;2023-03-21T08:33:10;2.10;99.90
12682;DHT22;6405;59.208;18.216;2023-03-21T08:35:38;2.20;99.90
12682;DHT22;6405;59.208;18.216;2023-03-21T08:38:05;2.30;99.90
12682;DHT22;6405;59.208;18.216;2023-03-21T08:40:32;2.10;99.90
12682;DHT22;6405;59.208;18.216;2023-03-21T08:42:58;2.30;99.90
12682;DHT22;6405;59.208;18.216;2023-03-21T08:45:24;2.40;99.90
12682;DHT22;6405;59.208;18.216;2023-03-21T08:47:52;2.40;99.90
12682;DHT22;6405;59.208;18.216;2023-03-21T08:50:20;2.40;99.90
12682;DHT22;6405;59.208;18.216;2023-03-21T08:52:46;2.30;99.90
12682;DHT22;6405;59.208;18.216;2023-03-21T08:55:13;2.20;99.90
12682;DHT22;6405;59.208;18.216;2023-03-21T08:57:39;2.10;99.90
12682;DHT22;6405;59.208;18.216;2023-03-21T09:00:05;2.10;99.90
12682;DHT22;6405;59.208;18.216;2023-03-21T09:02:43;2.10;99.90
12682;DHT22;6405;59.208;18.216;2023-03-21T09:05:10;2.10;99.90
12682;DHT22;6405;59.208;18.216;2023-03-21T09:07:37;2.20;99.90
12682;DHT22;6405;59.208;18.216;2023-03-21T09:10:09;2.30;99.90
12682;DHT22;6405;59.208;18.216;2023-03-21T09:12:36;2.30;99.90
12682;DHT22;6405;59.208;18.216;2023-03-21T09:15:02;2.40;99.90
12682;DHT22;6405;59.208;18.216;2023-03-21T09:17:29;2.50;99.90
12682;DHT22;6405;59.208;18.216;2023-03-21T09:19:56;2.60;99.90
12682;DHT22;6405;59.208;18.216;2023-03-21T09:22:25;2.70;99.90
12682;DHT22;6405;59.208;18.216;2023-03-21T09:24:51;2.70;99.90
12682;DHT22;6405;59.208;18.216;2023-03-21T09:27:18;2.90;99.90
12682;DHT22;6405;59.208;18.216;2023-03-21T09:29:48;2.90;99.90
12682;DHT22;6405;59.208;18.216;2023-03-21T09:32:15;3.00;99.90
12682;DHT22;6405;59.208;18.216;2023-03-21T09:34:43;3.10;99.90
12682;DHT22;6405;59.208;18.216;2023-03-21T09:37:09;3.10;99.90
12682;DHT22;6405;59.208;18.216;2023-03-21T09:39:41;3.30;99.90
12682;DHT22;6405;59.208;18.216;2023-03-21T09:42:32;3.30;99.90
12682;DHT22;6405;59.208;18.216;2023-03-21T09:45:19;3.50;99.90
12682;DHT22;6405;59.208;18.216;2023-03-21T09:47:47;3.60;99.90
12682;DHT22;6405;59.208;18.216;2023-03-21T09:50:39;3.70;99.90
12682;DHT22;6405;59.208;18.216;2023-03-21T09:53:33;3.90;99.90
12682;DHT22;6405;59.208;18.216;2023-03-21T09:56:00;4.10;99.90
12682;DHT22;6405;59.208;18.216;2023-03-21T09:58:32;4.20;99.90
12682;DHT22;6405;59.208;18.216;2023-03-21T10:01:07;4.40;99.90
12682;DHT22;6405;59.208;18.216;2023-03-21T10:03:35;4.50;99.90
12682;DHT22;6405;59.208;18.216;2023-03-21T10:06:05;4.60;99.90
12682;DHT22;6405;59.208;18.216;2023-03-21T10:08:38;4.60;99.90
12682;DHT22;6405;59.208;18.216;2023-03-21T10:13:45;4.60;99.90
12682;DHT22;6405;59.208;18.216;2023-03-21T10:16:15;4.60;99.90
12682;DHT22;6405;59.208;18.216;2023-03-21T10:18:42;4.70;99.90
12682;DHT22;6405;59.208;18.216;2023-03-21T10:21:14;4.80;99.90
12682;DHT22;6405;59.208;18.216;2023-03-21T10:23:43;4.80;99.90
12682;DHT22;6405;59.208;18.216;2023-03-21T10:26:09;4.90;99.90
12682;DHT22;6405;59.208;18.216;2023-03-21T10:28:37;4.90;99.90
12682;DHT22;6405;59.208;18.216;2023-03-21T10:31:08;5.00;99.90
12682;DHT22;6405;59.208;18.216;2023-03-21T10:33:42;5.00;99.90
12682;DHT22;6405;59.208;18.216;2023-03-21T10:36:18;5.10;99.90
12682;DHT22;6405;59.208;18.216;2023-03-21T10:39:17;5.20;99.90
12682;DHT22;6405;59.208;18.216;2023-03-21T10:41:45;5.30;99.90
12682;DHT22;6405;59.208;18.216;2023-03-21T10:44:14;5.20;99.90
12682;DHT22;6405;59.208;18.216;2023-03-21T10:46:55;5.10;99.90
12682;DHT22;6405;59.208;18.216;2023-03-21T10:49:22;5.20;99.90
12682;DHT22;6405;59.208;18.216;2023-03-21T10:51:53;5.30;99.90
12682;DHT22;6405;59.208;18.216;2023-03-21T10:54:21;5.40;99.90
12682;DHT22;6405;59.208;18.216;2023-03-21T10:57:03;5.50;99.90
12682;DHT22;6405;59.208;18.216;2023-03-21T11:00:06;5.60;99.90
12682;DHT22;6405;59.208;18.216;2023-03-21T11:02:41;5.60;99.90
12682;DHT22;6405;59.208;18.216;2023-03-21T11:05:21;5.70;99.90
12682;DHT22;6405;59.208;18.216;2023-03-21T11:07:55;5.70;99.90
12682;DHT22;6405;59.208;18.216;2023-03-21T11:13:24;5.80;99.90
12682;DHT22;6405;59.208;18.216;2023-03-21T11:18:42;5.80;99.90
12682;DHT22;6405;59.208;18.216;2023-03-21T11:21:11;5.80;99.90
12682;DHT22;6405;59.208;18.216;2023-03-21T11:23:44;5.90;99.90
12682;DHT22;6405;59.208;18.216;2023-03-21T11:26:28;5.80;99.90
12682;DHT22;6405;59.208;18.216;2023-03-21T11:28:55;6.00;99.90
12682;DHT22;6405;59.208;18.216;2023-03-21T11:31:21;6.10;99.90
12682;DHT22;6405;59.208;18.216;2023-03-21T11:33:55;5.90;99.90
12682;DHT22;6405;59.208;18.216;2023-03-21T11:38:49;6.00;99.90
12682;DHT22;6405;59.208;18.216;2023-03-21T11:41:31;6.00;99.90
12682;DHT22;6405;59.208;18.216;2023-03-21T11:43:58;6.00;99.90
12682;DHT22;6405;59.208;18.216;2023-03-21T11:46:26;6.00;99.90
12682;DHT22;6405;59.208;18.216;2023-03-21T11:48:52;6.00;99.90
12682;DHT22;6405;59.208;18.216;2023-03-21T11:57:19;6.10;99.90
12682;DHT22;6405;59.208;18.216;2023-03-21T12:00:33;6.20;99.90
12682;DHT22;6405;59.208;18.216;2023-03-21T12:05:57;6.30;99.90
12682;DHT22;6405;59.208;18.216;2023-03-21T12:08:37;6.30;99.90
12682;DHT22;6405;59.208;18.216;2023-03-21T12:14:11;6.40;99.90
12682;DHT22;6405;59.208;18.216;2023-03-21T12:16:53;6.50;99.90
12682;DHT22;6405;59.208;18.216;2023-03-21T12:19:52;6.50;99.90
12682;DHT22;6405;59.208;18.216;2023-03-21T12:22:37;6.60;99.90
12682;DHT22;6405;59.208;18.216;2023-03-21T12:25:26;6.70;99.90
12682;DHT22;6405;59.208;18.216;2023-03-21T12:28:14;6.70;99.90
12682;DHT22;6405;59.208;18.216;2023-03-21T12:36:34;6.90;99.90
12682;DHT22;6405;59.208;18.216;2023-03-21T12:39:21;7.00;99.90
12682;DHT22;6405;59.208;18.216;2023-03-21T12:44:55;6.90;99.90
12682;DHT22;6405;59.208;18.216;2023-03-21T12:47:28;6.70;99.90
12682;DHT22;6405;59.208;18.216;2023-03-21T12:52:48;6.60;99.90
12682;DHT22;6405;59.208;18.216;2023-03-21T12:55:20;6.50;99.90
12682;DHT22;6405;59.208;18.216;2023-03-21T12:58:16;6.50;99.90
12682;DHT22;6405;59.208;18.216;2023-03-21T13:00:53;6.60;99.90
12682;DHT22;6405;59.208;18.216;2023-03-21T13:03:36;6.70;99.90
12682;DHT22;6405;59.208;18.216;2023-03-21T13:06:09;6.70;99.90
12682;DHT22;6405;59.208;18.216;2023-03-21T13:08:36;6.70;99.90
12682;DHT22;6405;59.208;18.216;2023-03-21T13:11:05;6.70;99.90
12682;DHT22;6405;59.208;18.216;2023-03-21T13:14:04;6.60;99.90
12682;DHT22;6405;59.208;18.216;2023-03-21T13:16:38;6.50;99.90
12682;DHT22;6405;59.208;18.216;2023-03-21T13:24:25;6.40;99.90
12682;DHT22;6405;59.208;18.216;2023-03-21T13:27:06;6.40;99.90
12682;DHT22;6405;59.208;18.216;2023-03-21T13:29:50;6.30;99.90
12682;DHT22;6405;59.208;18.216;2023-03-21T13:32:28;6.40;99.90
12682;DHT22;6405;59.208;18.216;2023-03-21T13:35:00;6.60;99.90
12682;DHT22;6405;59.208;18.216;2023-03-21T13:37:33;7.00;99.90
12682;DHT22;6405;59.208;18.216;2023-03-21T13:40:03;7.10;99.90
12682;DHT22;6405;59.208;18.216;2023-03-21T13:42:34;7.10;99.90
12682;DHT22;6405;59.208;18.216;2023-03-21T13:45:01;7.20;99.90
12682;DHT22;6405;59.208;18.216;2023-03-21T13:47:33;7.20;99.90
12682;DHT22;6405;59.208;18.216;2023-03-21T13:50:25;7.10;99.90
12682;DHT22;6405;59.208;18.216;2023-03-21T13:53:16;7.00;99.90
12682;DHT22;6405;59.208;18.216;2023-03-21T13:55:45;6.90;99.90
12682;DHT22;6405;59.208;18.216;2023-03-21T13:58:30;6.80;99.90
12682;DHT22;6405;59.208;18.216;2023-03-21T14:01:19;6.80;99.90
12682;DHT22;6405;59.208;18.216;2023-03-21T14:03:46;6.90;99.90
12682;DHT22;6405;59.208;18.216;2023-03-21T14:06:14;6.90;99.90
12682;DHT22;6405;59.208;18.216;2023-03-21T14:08:44;6.90;99.90
12682;DHT22;6405;59.208;18.216;2023-03-21T14:11:16;7.10;99.90
12682;DHT22;6405;59.208;18.216;2023-03-21T14:13:44;7.10;99.90
12682;DHT22;6405;59.208;18.216;2023-03-21T14:16:13;7.00;99.90
12682;DHT22;6405;59.208;18.216;2023-03-21T14:18:47;7.00;99.90
12682;DHT22;6405;59.208;18.216;2023-03-21T14:21:21;6.80;99.90
12682;DHT22;6405;59.208;18.216;2023-03-21T14:24:04;6.80;99.90
12682;DHT22;6405;59.208;18.216;2023-03-21T14:26:33;6.70;99.90
12682;DHT22;6405;59.208;18.216;2023-03-21T14:29:02;6.50;99.90
12682;DHT22;6405;59.208;18.216;2023-03-21T14:31:28;6.40;99.90
12682;DHT22;6405;59.208;18.216;2023-03-21T14:33:58;6.30;99.90
12682;DHT22;6405;59.208;18.216;2023-03-21T14:36:31;6.20;99.90
12682;DHT22;6405;59.208;18.216;2023-03-21T14:39:05;6.20;99.90
12682;DHT22;6405;59.208;18.216;2023-03-21T14:41:33;6.20;99.90
12682;DHT22;6405;59.208;18.216;2023-03-21T14:46:41;6.10;99.90
12682;DHT22;6405;59.208;18.216;2023-03-21T14:49:24;6.10;99.90
12682;DHT22;6405;59.208;18.216;2023-03-21T14:51:52;6.10;99.90
12682;DHT22;6405;59.208;18.216;2023-03-21T14:54:18;6.00;99.90
12682;DHT22;6405;59.208;18.216;2023-03-21T14:56:51;6.00;99.90
12682;DHT22;6405;59.208;18.216;2023-03-21T14:59:20;6.00;99.90
12682;DHT22;6405;59.208;18.216;2023-03-21T15:01:48;6.00;99.90
12682;DHT22;6405;59.208;18.216;2023-03-21T15:04:15;6.00;99.90
12682;DHT22;6405;59.208;18.216;2023-03-21T15:09:15;5.80;99.90
12682;DHT22;6405;59.208;18.216;2023-03-21T15:11:40;5.70;99.90
12682;DHT22;6405;59.208;18.216;2023-03-21T15:14:10;5.70;99.90
12682;DHT22;6405;59.208;18.216;2023-03-21T15:16:37;5.50;99.90
12682;DHT22;6405;59.208;18.216;2023-03-21T15:19:04;5.40;99.90
12682;DHT22;6405;59.208;18.216;2023-03-21T15:21:43;5.30;99.90
12682;DHT22;6405;59.208;18.216;2023-03-21T15:24:31;5.20;99.90
12682;DHT22;6405;59.208;18.216;2023-03-21T15:27:02;5.10;99.90
12682;DHT22;6405;59.208;18.216;2023-03-21T15:29:28;4.90;99.90
12682;DHT22;6405;59.208;18.216;2023-03-21T15:31:54;4.80;99.90
12682;DHT22;6405;59.208;18.216;2023-03-21T15:34:26;4.70;99.90
12682;DHT22;6405;59.208;18.216;2023-03-21T15:37:03;4.70;99.90
12682;DHT22;6405;59.208;18.216;2023-03-21T15:39:30;4.60;99.90
12682;DHT22;6405;59.208;18.216;2023-03-21T15:44:47;4.50;99.90
12682;DHT22;6405;59.208;18.216;2023-03-21T15:47:14;4.40;99.90
12682;DHT22;6405;59.208;18.216;2023-03-21T15:49:39;4.30;99.90
12682;DHT22;6405;59.208;18.216;2023-03-21T15:52:13;4.30;99.90
12682;DHT22;6405;59.208;18.216;2023-03-21T15:54:48;4.20;99.90
12682;DHT22;6405;59.208;18.216;2023-03-21T15:57:26;4.30;99.90
12682;DHT22;6405;59.208;18.216;2023-03-21T16:02:40;4.10;99.90
12682;DHT22;6405;59.208;18.216;2023-03-21T16:05:23;4.00;99.90
12682;DHT22;6405;59.208;18.216;2023-03-21T16:07:49;4.00;99.90
12682;DHT22;6405;59.208;18.216;2023-03-21T16:10:36;3.90;99.90
12682;DHT22;6405;59.208;18.216;2023-03-21T16:13:03;3.90;99.90
12682;DHT22;6405;59.208;18.216;2023-03-21T16:15:30;3.80;99.90
12682;DHT22;6405;59.208;18.216;2023-03-21T16:17:59;3.80;99.90
12682;DHT22;6405;59.208;18.216;2023-03-21T16:20:27;3.70;99.90
12682;DHT22;6405;59.208;18.216;2023-03-21T16:22:53;3.70;99.90
12682;DHT22;6405;59.208;18.216;2023-03-21T16:25:19;3.60;99.90
12682;DHT22;6405;59.208;18.216;2023-03-21T16:27:47;3.60;99.90
12682;DHT22;6405;59.208;18.216;2023-03-21T16:30:19;3.50;99.90
12682;DHT22;6405;59.208;18.216;2023-03-21T16:32:45;3.40;99.90
12682;DHT22;6405;59.208;18.216;2023-03-21T16:35:12;3.40;99.90
12682;DHT22;6405;59.208;18.216;2023-03-21T16:37:38;3.30;99.90
12682;DHT22;6405;59.208;18.216;2023-03-21T16:40:28;3.30;99.90
12682;DHT22;6405;59.208;18.216;2023-03-21T16:42:54;3.20;99.90
12682;DHT22;6405;59.208;18.216;2023-03-21T16:45:20;3.10;99.90
12682;DHT22;6405;59.208;18.216;2023-03-21T16:47:45;3.10;99.90
12682;DHT22;6405;59.208;18.216;2023-03-21T16:52:56;3.00;99.90
12682;DHT22;6405;59.208;18.216;2023-03-21T16:55:23;3.00;99.90
12682;DHT22;6405;59.208;18.216;2023-03-21T16:57:49;2.90;99.90
12682;DHT22;6405;59.208;18.216;2023-03-21T17:00:21;2.90;99.90
12682;DHT22;6405;59.208;18.216;2023-03-21T17:02:52;2.90;99.90
12682;DHT22;6405;59.208;18.216;2023-03-21T17:05:23;2.80;99.90
12682;DHT22;6405;59.208;18.216;2023-03-21T17:07:51;2.80;99.90
12682;DHT22;6405;59.208;18.216;2023-03-21T17:10:22;2.80;99.90
12682;DHT22;6405;59.208;18.216;2023-03-21T17:12:49;2.70;99.90
12682;DHT22;6405;59.208;18.216;2023-03-21T17:15:15;2.70;99.90
12682;DHT22;6405;59.208;18.216;2023-03-21T17:17:42;2.60;99.90
12682;DHT22;6405;59.208;18.216;2023-03-21T17:20:29;2.60;99.90
12682;DHT22;6405;59.208;18.216;2023-03-21T17:22:56;2.50;99.90
12682;DHT22;6405;59.208;18.216;2023-03-21T17:25:22;2.50;99.90
12682;DHT22;6405;59.208;18.216;2023-03-21T17:27:47;2.50;99.90
12682;DHT22;6405;59.208;18.216;2023-03-21T17:30:21;2.50;99.90